<?xml version="1.0" encoding="utf-8"?>
<gpx xmlns:xsi="http://www.w3.org/2001/XMLSchema-instance" xmlns:xsd="http://www.w3.org/2001/XMLSchema" version="1.1" creator="Shapelink.com" xmlns="http://www.topografix.com/GPX/1/1" xmlns:gpxtpx="http://www.garmin.com/xmlschemas/TrackPointExtension/v1">
  <metadata>
    <name>Löpning 5.63 km, 2019-07-08</name>
    <desc></desc>
    <author><name>Marian Moron</name></author> 
    <time>2019-07-08T10:51:53Z</time>
  </metadata>
  <trk>
    <name>Löpning 5.63 km, 2019-07-08</name>
    <trkseg>
      <trkpt lat="51.227796950445" lon="4.466637647977">
        <ele>0</ele>
        <time>2019-07-08T10:51:53Z</time>
      </trkpt>
      <trkpt lat="51.227965426635" lon="4.466764466124">
        <ele>0</ele>
        <time>2019-07-08T10:52:00Z</time>
      </trkpt>
      <trkpt lat="51.228133316092" lon="4.46689304447">
        <ele>0</ele>
        <time>2019-07-08T10:52:07Z</time>
      </trkpt>
      <trkpt lat="51.2283036363" lon="4.467044253946">
        <ele>0</ele>
        <time>2019-07-08T10:52:15Z</time>
      </trkpt>
      <trkpt lat="51.228455516328" lon="4.467205856978">
        <ele>0</ele>
        <time>2019-07-08T10:52:24Z</time>
      </trkpt>
      <trkpt lat="51.228633715522" lon="4.467347511088">
        <ele>4.8</ele>
        <time>2019-07-08T10:52:32Z</time>
      </trkpt>
      <trkpt lat="51.228818955512" lon="4.4674185896">
        <ele>7.6</ele>
        <time>2019-07-08T10:52:39Z</time>
      </trkpt>
      <trkpt lat="51.229000423647" lon="4.467467539896">
        <ele>7.8</ele>
        <time>2019-07-08T10:52:45Z</time>
      </trkpt>
      <trkpt lat="51.229190273682" lon="4.467548760507">
        <ele>8.4</ele>
        <time>2019-07-08T10:52:52Z</time>
      </trkpt>
      <trkpt lat="51.229365790668" lon="4.467615731888">
        <ele>7.2</ele>
        <time>2019-07-08T10:52:59Z</time>
      </trkpt>
      <trkpt lat="51.229549521916" lon="4.467622018313">
        <ele>6.2</ele>
        <time>2019-07-08T10:53:06Z</time>
      </trkpt>
      <trkpt lat="51.229748927317" lon="4.467552448543">
        <ele>4.4</ele>
        <time>2019-07-08T10:53:13Z</time>
      </trkpt>
      <trkpt lat="51.229930311633" lon="4.467475670339">
        <ele>3.4</ele>
        <time>2019-07-08T10:53:20Z</time>
      </trkpt>
      <trkpt lat="51.230117730917" lon="4.467443064748">
        <ele>3.2</ele>
        <time>2019-07-08T10:53:28Z</time>
      </trkpt>
      <trkpt lat="51.230297941767" lon="4.467374416987">
        <ele>2.4</ele>
        <time>2019-07-08T10:53:36Z</time>
      </trkpt>
      <trkpt lat="51.230480667187" lon="4.467294202204">
        <ele>0</ele>
        <time>2019-07-08T10:53:44Z</time>
      </trkpt>
      <trkpt lat="51.230660878037" lon="4.467215831439">
        <ele>0</ele>
        <time>2019-07-08T10:53:52Z</time>
      </trkpt>
      <trkpt lat="51.230859696705" lon="4.467157493415">
        <ele>0.4</ele>
        <time>2019-07-08T10:54:00Z</time>
      </trkpt>
      <trkpt lat="51.231047283627" lon="4.467105525635">
        <ele>3.2</ele>
        <time>2019-07-08T10:54:07Z</time>
      </trkpt>
      <trkpt lat="51.23123897768" lon="4.467076691899">
        <ele>3.8</ele>
        <time>2019-07-08T10:54:14Z</time>
      </trkpt>
      <trkpt lat="51.23143679052" lon="4.46707241713">
        <ele>2.8</ele>
        <time>2019-07-08T10:54:21Z</time>
      </trkpt>
      <trkpt lat="51.231625467089" lon="4.467095970269">
        <ele>3.6</ele>
        <time>2019-07-08T10:54:29Z</time>
      </trkpt>
      <trkpt lat="51.231812048183" lon="4.467056994434">
        <ele>2.4</ele>
        <time>2019-07-08T10:54:36Z</time>
      </trkpt>
      <trkpt lat="51.231976920156" lon="4.466936043617">
        <ele>2.6</ele>
        <time>2019-07-08T10:54:44Z</time>
      </trkpt>
      <trkpt lat="51.232118406628" lon="4.467139807606">
        <ele>3.6</ele>
        <time>2019-07-08T10:54:51Z</time>
      </trkpt>
      <trkpt lat="51.232218067419" lon="4.467420014523">
        <ele>3.6</ele>
        <time>2019-07-08T10:54:58Z</time>
      </trkpt>
      <trkpt lat="51.232342119539" lon="4.467639452665">
        <ele>2.4</ele>
        <time>2019-07-08T10:55:05Z</time>
      </trkpt>
      <trkpt lat="51.232450497506" lon="4.467908008741">
        <ele>4.2</ele>
        <time>2019-07-08T10:55:13Z</time>
      </trkpt>
      <trkpt lat="51.23255745055" lon="4.46816206413">
        <ele>5.6</ele>
        <time>2019-07-08T10:55:22Z</time>
      </trkpt>
      <trkpt lat="51.232678904281" lon="4.46838669905">
        <ele>5.8</ele>
        <time>2019-07-08T10:55:31Z</time>
      </trkpt>
      <trkpt lat="51.23279465832" lon="4.468637820774">
        <ele>5.6</ele>
        <time>2019-07-08T10:55:40Z</time>
      </trkpt>
      <trkpt lat="51.232896833681" lon="4.468905287203">
        <ele>5.2</ele>
        <time>2019-07-08T10:55:49Z</time>
      </trkpt>
      <trkpt lat="51.232997332662" lon="4.469179207695">
        <ele>5.4</ele>
        <time>2019-07-08T10:55:57Z</time>
      </trkpt>
      <trkpt lat="51.233081067843" lon="4.469462767372">
        <ele>4.8</ele>
        <time>2019-07-08T10:56:05Z</time>
      </trkpt>
      <trkpt lat="51.233208975637" lon="4.469703746997">
        <ele>4.6</ele>
        <time>2019-07-08T10:56:13Z</time>
      </trkpt>
      <trkpt lat="51.233273516267" lon="4.469796366992">
        <ele>5.2</ele>
        <time>2019-07-08T10:56:17Z</time>
      </trkpt>
      <trkpt lat="51.23340150788" lon="4.470036173151">
        <ele>5.8</ele>
        <time>2019-07-08T10:56:24Z</time>
      </trkpt>
      <trkpt lat="51.233510724037" lon="4.470303974856">
        <ele>4.8</ele>
        <time>2019-07-08T10:56:31Z</time>
      </trkpt>
      <trkpt lat="51.233612312665" lon="4.470552330553">
        <ele>2</ele>
        <time>2019-07-08T10:56:38Z</time>
      </trkpt>
      <trkpt lat="51.233737454432" lon="4.470795321834">
        <ele>0.8</ele>
        <time>2019-07-08T10:56:46Z</time>
      </trkpt>
      <trkpt lat="51.233829320056" lon="4.471073098">
        <ele>1.6</ele>
        <time>2019-07-08T10:56:54Z</time>
      </trkpt>
      <trkpt lat="51.233941637516" lon="4.471310054313">
        <ele>1.6</ele>
        <time>2019-07-08T10:57:02Z</time>
      </trkpt>
      <trkpt lat="51.234043142325" lon="4.471579867674">
        <ele>4.4</ele>
        <time>2019-07-08T10:57:11Z</time>
      </trkpt>
      <trkpt lat="51.234171301576" lon="4.471796036875">
        <ele>3.8</ele>
        <time>2019-07-08T10:57:20Z</time>
      </trkpt>
      <trkpt lat="51.234299544646" lon="4.472028886057">
        <ele>6.6</ele>
        <time>2019-07-08T10:57:28Z</time>
      </trkpt>
      <trkpt lat="51.234388308967" lon="4.472284450188">
        <ele>9.6</ele>
        <time>2019-07-08T10:57:35Z</time>
      </trkpt>
      <trkpt lat="51.234501883712" lon="4.472514617162">
        <ele>9.2</ele>
        <time>2019-07-08T10:57:42Z</time>
      </trkpt>
      <trkpt lat="51.234626187289" lon="4.472827681127">
        <ele>9.4</ele>
        <time>2019-07-08T10:57:51Z</time>
      </trkpt>
      <trkpt lat="51.234725680442" lon="4.473104786741">
        <ele>8.2</ele>
        <time>2019-07-08T10:57:59Z</time>
      </trkpt>
      <trkpt lat="51.234839339006" lon="4.473351214601">
        <ele>7.4</ele>
        <time>2019-07-08T10:58:06Z</time>
      </trkpt>
      <trkpt lat="51.234959954547" lon="4.473580291928">
        <ele>8.8</ele>
        <time>2019-07-08T10:58:13Z</time>
      </trkpt>
      <trkpt lat="51.234963977859" lon="4.473613568071">
        <ele>8.8</ele>
        <time>2019-07-08T10:58:14Z</time>
      </trkpt>
      <trkpt lat="51.234979735831" lon="4.473853206592">
        <ele>9.6</ele>
        <time>2019-07-08T10:58:21Z</time>
      </trkpt>
      <trkpt lat="51.23513153204" lon="4.474007098276">
        <ele>9.6</ele>
        <time>2019-07-08T10:58:29Z</time>
      </trkpt>
      <trkpt lat="51.235226834243" lon="4.474272804506">
        <ele>8.8</ele>
        <time>2019-07-08T10:58:37Z</time>
      </trkpt>
      <trkpt lat="51.235331188898" lon="4.474555023079">
        <ele>11.2</ele>
        <time>2019-07-08T10:58:45Z</time>
      </trkpt>
      <trkpt lat="51.235435208277" lon="4.474809162287">
        <ele>15.2</ele>
        <time>2019-07-08T10:58:52Z</time>
      </trkpt>
      <trkpt lat="51.235547777194" lon="4.475074449422">
        <ele>18.6</ele>
        <time>2019-07-08T10:58:59Z</time>
      </trkpt>
      <trkpt lat="51.235643833768" lon="4.475335797064">
        <ele>23.8</ele>
        <time>2019-07-08T10:59:06Z</time>
      </trkpt>
      <trkpt lat="51.235754810124" lon="4.475597144706">
        <ele>26.8</ele>
        <time>2019-07-08T10:59:13Z</time>
      </trkpt>
      <trkpt lat="51.235828822301" lon="4.475887493722">
        <ele>27.6</ele>
        <time>2019-07-08T10:59:20Z</time>
      </trkpt>
      <trkpt lat="51.235868217231" lon="4.476173065055">
        <ele>25.4</ele>
        <time>2019-07-08T10:59:28Z</time>
      </trkpt>
      <trkpt lat="51.235925214151" lon="4.47646349789">
        <ele>25</ele>
        <time>2019-07-08T10:59:37Z</time>
      </trkpt>
      <trkpt lat="51.235986988754" lon="4.476733311251">
        <ele>26.2</ele>
        <time>2019-07-08T10:59:45Z</time>
      </trkpt>
      <trkpt lat="51.236040046181" lon="4.477046961949">
        <ele>21.8</ele>
        <time>2019-07-08T10:59:53Z</time>
      </trkpt>
      <trkpt lat="51.236031161367" lon="4.477368240176">
        <ele>11.8</ele>
        <time>2019-07-08T11:00:00Z</time>
      </trkpt>
      <trkpt lat="51.236064521329" lon="4.477652218948">
        <ele>6.6</ele>
        <time>2019-07-08T11:00:08Z</time>
      </trkpt>
      <trkpt lat="51.236082458595" lon="4.477961175782">
        <ele>6</ele>
        <time>2019-07-08T11:00:16Z</time>
      </trkpt>
      <trkpt lat="51.236114393634" lon="4.478267450408">
        <ele>6.2</ele>
        <time>2019-07-08T11:00:24Z</time>
      </trkpt>
      <trkpt lat="51.236138533506" lon="4.478582609848">
        <ele>4.4</ele>
        <time>2019-07-08T11:00:32Z</time>
      </trkpt>
      <trkpt lat="51.236171809649" lon="4.478888465379">
        <ele>7.2</ele>
        <time>2019-07-08T11:00:39Z</time>
      </trkpt>
      <trkpt lat="51.236178347531" lon="4.479184514087">
        <ele>8.4</ele>
        <time>2019-07-08T11:00:46Z</time>
      </trkpt>
      <trkpt lat="51.236164014482" lon="4.47949020198">
        <ele>6.4</ele>
        <time>2019-07-08T11:00:53Z</time>
      </trkpt>
      <trkpt lat="51.236161583731" lon="4.479777617331">
        <ele>5.6</ele>
        <time>2019-07-08T11:01:00Z</time>
      </trkpt>
      <trkpt lat="51.236166864328" lon="4.480092273857">
        <ele>7.6</ele>
        <time>2019-07-08T11:01:08Z</time>
      </trkpt>
      <trkpt lat="51.236155716401" lon="4.480400224863">
        <ele>7</ele>
        <time>2019-07-08T11:01:15Z</time>
      </trkpt>
      <trkpt lat="51.236143059732" lon="4.480691495888">
        <ele>7.4</ele>
        <time>2019-07-08T11:01:22Z</time>
      </trkpt>
      <trkpt lat="51.236122104982" lon="4.481012522658">
        <ele>7.2</ele>
        <time>2019-07-08T11:01:30Z</time>
      </trkpt>
      <trkpt lat="51.236106849924" lon="4.481305050968">
        <ele>5.4</ele>
        <time>2019-07-08T11:01:37Z</time>
      </trkpt>
      <trkpt lat="51.236084470251" lon="4.481593891242">
        <ele>5.2</ele>
        <time>2019-07-08T11:01:44Z</time>
      </trkpt>
      <trkpt lat="51.236077429455" lon="4.481895639642">
        <ele>4.4</ele>
        <time>2019-07-08T11:01:52Z</time>
      </trkpt>
      <trkpt lat="51.236065862433" lon="4.482203339191">
        <ele>4.8</ele>
        <time>2019-07-08T11:02:00Z</time>
      </trkpt>
      <trkpt lat="51.236071478306" lon="4.482513637129">
        <ele>4.8</ele>
        <time>2019-07-08T11:02:08Z</time>
      </trkpt>
      <trkpt lat="51.236069718107" lon="4.482801471575">
        <ele>5.4</ele>
        <time>2019-07-08T11:02:15Z</time>
      </trkpt>
      <trkpt lat="51.236088409744" lon="4.483105566907">
        <ele>8.2</ele>
        <time>2019-07-08T11:02:23Z</time>
      </trkpt>
      <trkpt lat="51.236107604295" lon="4.483398095217">
        <ele>9.6</ele>
        <time>2019-07-08T11:02:30Z</time>
      </trkpt>
      <trkpt lat="51.23611724348" lon="4.483722558566">
        <ele>7.8</ele>
        <time>2019-07-08T11:02:38Z</time>
      </trkpt>
      <trkpt lat="51.236117159661" lon="4.484048614476">
        <ele>6</ele>
        <time>2019-07-08T11:02:46Z</time>
      </trkpt>
      <trkpt lat="51.236107520476" lon="4.484342735347">
        <ele>4.4</ele>
        <time>2019-07-08T11:02:53Z</time>
      </trkpt>
      <trkpt lat="51.236065359519" lon="4.484634760743">
        <ele>4</ele>
        <time>2019-07-08T11:03:00Z</time>
      </trkpt>
      <trkpt lat="51.23602420439" lon="4.484953272943">
        <ele>4.4</ele>
        <time>2019-07-08T11:03:08Z</time>
      </trkpt>
      <trkpt lat="51.2360652757" lon="4.485255775714">
        <ele>4.4</ele>
        <time>2019-07-08T11:03:16Z</time>
      </trkpt>
      <trkpt lat="51.236091343409" lon="4.485573198267">
        <ele>4.4</ele>
        <time>2019-07-08T11:03:24Z</time>
      </trkpt>
      <trkpt lat="51.236101401689" lon="4.48586379874">
        <ele>5.8</ele>
        <time>2019-07-08T11:03:31Z</time>
      </trkpt>
      <trkpt lat="51.236108442485" lon="4.486441563107">
        <ele>4.8</ele>
        <time>2019-07-08T11:03:46Z</time>
      </trkpt>
      <trkpt lat="51.236108610123" lon="4.486757896013">
        <ele>3.8</ele>
        <time>2019-07-08T11:03:54Z</time>
      </trkpt>
      <trkpt lat="51.236111292331" lon="4.48704564664">
        <ele>3</ele>
        <time>2019-07-08T11:04:01Z</time>
      </trkpt>
      <trkpt lat="51.236128475226" lon="4.487351921266">
        <ele>2.2</ele>
        <time>2019-07-08T11:04:09Z</time>
      </trkpt>
      <trkpt lat="51.236128559045" lon="4.487676552253">
        <ele>1.8</ele>
        <time>2019-07-08T11:04:17Z</time>
      </trkpt>
      <trkpt lat="51.236128475226" lon="4.487970002572">
        <ele>1.6</ele>
        <time>2019-07-08T11:04:24Z</time>
      </trkpt>
      <trkpt lat="51.23612981633" lon="4.488282228347">
        <ele>1.4</ele>
        <time>2019-07-08T11:04:31Z</time>
      </trkpt>
      <trkpt lat="51.23612981633" lon="4.488592693923">
        <ele>0.8</ele>
        <time>2019-07-08T11:04:38Z</time>
      </trkpt>
      <trkpt lat="51.236142808275" lon="4.488898800911">
        <ele>0.4</ele>
        <time>2019-07-08T11:04:45Z</time>
      </trkpt>
      <trkpt lat="51.236142221542" lon="4.489191329221">
        <ele>0.4</ele>
        <time>2019-07-08T11:04:52Z</time>
      </trkpt>
      <trkpt lat="51.2361407128" lon="4.489486875015">
        <ele>1</ele>
        <time>2019-07-08T11:04:59Z</time>
      </trkpt>
      <trkpt lat="51.236052199936" lon="4.489727184088">
        <ele>2.4</ele>
        <time>2019-07-08T11:05:06Z</time>
      </trkpt>
      <trkpt lat="51.235892021827" lon="4.489632384799">
        <ele>3.4</ele>
        <time>2019-07-08T11:05:13Z</time>
      </trkpt>
      <trkpt lat="51.235748691337" lon="4.489426692973">
        <ele>4.4</ele>
        <time>2019-07-08T11:05:20Z</time>
      </trkpt>
      <trkpt lat="51.235609551797" lon="4.489221923156">
        <ele>3.6</ele>
        <time>2019-07-08T11:05:27Z</time>
      </trkpt>
      <trkpt lat="51.235484745306" lon="4.489000557177">
        <ele>3.6</ele>
        <time>2019-07-08T11:05:34Z</time>
      </trkpt>
      <trkpt lat="51.235351724553" lon="4.48875723062">
        <ele>3.6</ele>
        <time>2019-07-08T11:05:42Z</time>
      </trkpt>
      <trkpt lat="51.235213507022" lon="4.488521447773">
        <ele>3.8</ele>
        <time>2019-07-08T11:05:50Z</time>
      </trkpt>
      <trkpt lat="51.235092556205" lon="4.488294968835">
        <ele>2</ele>
        <time>2019-07-08T11:05:58Z</time>
      </trkpt>
      <trkpt lat="51.234967833533" lon="4.488054492124">
        <ele>1.6</ele>
        <time>2019-07-08T11:06:07Z</time>
      </trkpt>
      <trkpt lat="51.234843613775" lon="4.487824828064">
        <ele>1.6</ele>
        <time>2019-07-08T11:06:16Z</time>
      </trkpt>
      <trkpt lat="51.234710593022" lon="4.487598181488">
        <ele>0.8</ele>
        <time>2019-07-08T11:06:25Z</time>
      </trkpt>
      <trkpt lat="51.234592072956" lon="4.487376564052">
        <ele>0.2</ele>
        <time>2019-07-08T11:06:33Z</time>
      </trkpt>
      <trkpt lat="51.234469194302" lon="4.487166765095">
        <ele>0.4</ele>
        <time>2019-07-08T11:06:41Z</time>
      </trkpt>
      <trkpt lat="51.234379843248" lon="4.486912206792">
        <ele>0.2</ele>
        <time>2019-07-08T11:06:50Z</time>
      </trkpt>
      <trkpt lat="51.234234333464" lon="4.486689834985">
        <ele>0</ele>
        <time>2019-07-08T11:06:59Z</time>
      </trkpt>
      <trkpt lat="51.234114639932" lon="4.486474252517">
        <ele>0</ele>
        <time>2019-07-08T11:07:06Z</time>
      </trkpt>
      <trkpt lat="51.23399578459" lon="4.486234111082">
        <ele>0</ele>
        <time>2019-07-08T11:07:14Z</time>
      </trkpt>
      <trkpt lat="51.233877348343" lon="4.486015678768">
        <ele>0</ele>
        <time>2019-07-08T11:07:21Z</time>
      </trkpt>
      <trkpt lat="51.233760923752" lon="4.485777213713">
        <ele>0</ele>
        <time>2019-07-08T11:07:28Z</time>
      </trkpt>
      <trkpt lat="51.233635781985" lon="4.485553500802">
        <ele>0</ele>
        <time>2019-07-08T11:07:35Z</time>
      </trkpt>
      <trkpt lat="51.233516088453" lon="4.485329787891">
        <ele>0.4</ele>
        <time>2019-07-08T11:07:42Z</time>
      </trkpt>
      <trkpt lat="51.233397568387" lon="4.485104314781">
        <ele>0.4</ele>
        <time>2019-07-08T11:07:49Z</time>
      </trkpt>
      <trkpt lat="51.233294890112" lon="4.484866185002">
        <ele>0</ele>
        <time>2019-07-08T11:07:56Z</time>
      </trkpt>
      <trkpt lat="51.233155834391" lon="4.484646663041">
        <ele>0</ele>
        <time>2019-07-08T11:08:04Z</time>
      </trkpt>
      <trkpt lat="51.233023987104" lon="4.484403587941">
        <ele>0</ele>
        <time>2019-07-08T11:08:12Z</time>
      </trkpt>
      <trkpt lat="51.232907730151" lon="4.484170738759">
        <ele>0</ele>
        <time>2019-07-08T11:08:19Z</time>
      </trkpt>
      <trkpt lat="51.232794574501" lon="4.483942415803">
        <ele>0</ele>
        <time>2019-07-08T11:08:26Z</time>
      </trkpt>
      <trkpt lat="51.232656524608" lon="4.48370545949">
        <ele>0</ele>
        <time>2019-07-08T11:08:34Z</time>
      </trkpt>
      <trkpt lat="51.232545967347" lon="4.483474621964">
        <ele>0</ele>
        <time>2019-07-08T11:08:42Z</time>
      </trkpt>
      <trkpt lat="51.232380676279" lon="4.483291896544">
        <ele>0</ele>
        <time>2019-07-08T11:08:50Z</time>
      </trkpt>
      <trkpt lat="51.232238603074" lon="4.483098358473">
        <ele>0</ele>
        <time>2019-07-08T11:08:58Z</time>
      </trkpt>
      <trkpt lat="51.232079430793" lon="4.482937342174">
        <ele>0</ele>
        <time>2019-07-08T11:09:07Z</time>
      </trkpt>
      <trkpt lat="51.232065181563" lon="4.482652525212">
        <ele>0</ele>
        <time>2019-07-08T11:09:17Z</time>
      </trkpt>
      <trkpt lat="51.232120418284" lon="4.482347926966">
        <ele>4.4</ele>
        <time>2019-07-08T11:09:26Z</time>
      </trkpt>
      <trkpt lat="51.231984715323" lon="4.482064870203">
        <ele>6.2</ele>
        <time>2019-07-08T11:09:31Z</time>
      </trkpt>
      <trkpt lat="51.231823112291" lon="4.481838139808">
        <ele>1.8</ele>
        <time>2019-07-08T11:09:35Z</time>
      </trkpt>
      <trkpt lat="51.231798804781" lon="4.48144569925">
        <ele>1</ele>
        <time>2019-07-08T11:09:42Z</time>
      </trkpt>
      <trkpt lat="51.231783884999" lon="4.481141687737">
        <ele>1.8</ele>
        <time>2019-07-08T11:09:48Z</time>
      </trkpt>
      <trkpt lat="51.231761421507" lon="4.480825606288">
        <ele>1.4</ele>
        <time>2019-07-08T11:09:55Z</time>
      </trkpt>
      <trkpt lat="51.231742143137" lon="4.480530144313">
        <ele>2.6</ele>
        <time>2019-07-08T11:10:02Z</time>
      </trkpt>
      <trkpt lat="51.231752201417" lon="4.480227138628">
        <ele>4.2</ele>
        <time>2019-07-08T11:10:09Z</time>
      </trkpt>
      <trkpt lat="51.231735353798" lon="4.479913907025">
        <ele>6</ele>
        <time>2019-07-08T11:10:17Z</time>
      </trkpt>
      <trkpt lat="51.231733593599" lon="4.479612493901">
        <ele>3.2</ele>
        <time>2019-07-08T11:10:25Z</time>
      </trkpt>
      <trkpt lat="51.231717919446" lon="4.479315104089">
        <ele>3.2</ele>
        <time>2019-07-08T11:10:33Z</time>
      </trkpt>
      <trkpt lat="51.231542234822" lon="4.479258358626">
        <ele>3</ele>
        <time>2019-07-08T11:10:42Z</time>
      </trkpt>
      <trkpt lat="51.231341739774" lon="4.479225585397">
        <ele>5.8</ele>
        <time>2019-07-08T11:10:50Z</time>
      </trkpt>
      <trkpt lat="51.231140322717" lon="4.479160122758">
        <ele>16.8</ele>
        <time>2019-07-08T11:10:57Z</time>
      </trkpt>
      <trkpt lat="51.230945778818" lon="4.479102287648">
        <ele>34.8</ele>
        <time>2019-07-08T11:11:03Z</time>
      </trkpt>
      <trkpt lat="51.230737153327" lon="4.479099773078">
        <ele>44.6</ele>
        <time>2019-07-08T11:11:10Z</time>
      </trkpt>
      <trkpt lat="51.230539172849" lon="4.479155177437">
        <ele>45.4</ele>
        <time>2019-07-08T11:11:18Z</time>
      </trkpt>
      <trkpt lat="51.230402715517" lon="4.478971194732">
        <ele>45.6</ele>
        <time>2019-07-08T11:11:26Z</time>
      </trkpt>
      <trkpt lat="51.230425849561" lon="4.478657544034">
        <ele>42.6</ele>
        <time>2019-07-08T11:11:34Z</time>
      </trkpt>
      <trkpt lat="51.230511093484" lon="4.478354957444">
        <ele>28.8</ele>
        <time>2019-07-08T11:11:44Z</time>
      </trkpt>
      <trkpt lat="51.230536742098" lon="4.478050107741">
        <ele>15.4</ele>
        <time>2019-07-08T11:11:53Z</time>
      </trkpt>
      <trkpt lat="51.23053657446" lon="4.477731930817">
        <ele>7</ele>
        <time>2019-07-08T11:12:02Z</time>
      </trkpt>
      <trkpt lat="51.230450911442" lon="4.477490951192">
        <ele>0.8</ele>
        <time>2019-07-08T11:12:12Z</time>
      </trkpt>
      <trkpt lat="51.230289811324" lon="4.477363546312">
        <ele>0</ele>
        <time>2019-07-08T11:12:20Z</time>
      </trkpt>
      <trkpt lat="51.230092417579" lon="4.477350722005">
        <ele>0</ele>
        <time>2019-07-08T11:12:28Z</time>
      </trkpt>
      <trkpt lat="51.229887731581" lon="4.477335634585">
        <ele>0.2</ele>
        <time>2019-07-08T11:12:36Z</time>
      </trkpt>
      <trkpt lat="51.229700982849" lon="4.477349297082">
        <ele>3</ele>
        <time>2019-07-08T11:12:43Z</time>
      </trkpt>
      <trkpt lat="51.229497051222" lon="4.477382908501">
        <ele>5.2</ele>
        <time>2019-07-08T11:12:51Z</time>
      </trkpt>
      <trkpt lat="51.229315750725" lon="4.477403360337">
        <ele>6.4</ele>
        <time>2019-07-08T11:12:58Z</time>
      </trkpt>
      <trkpt lat="51.229113746935" lon="4.477383243777">
        <ele>7.8</ele>
        <time>2019-07-08T11:13:06Z</time>
      </trkpt>
      <trkpt lat="51.22897586468" lon="4.47718937043">
        <ele>7.4</ele>
        <time>2019-07-08T11:13:14Z</time>
      </trkpt>
      <trkpt lat="51.228900008485" lon="4.476971189573">
        <ele>7.6</ele>
        <time>2019-07-08T11:13:21Z</time>
      </trkpt>
      <trkpt lat="51.228885172522" lon="4.476645888034">
        <ele>8</ele>
        <time>2019-07-08T11:13:29Z</time>
      </trkpt>
      <trkpt lat="51.22881409401" lon="4.476362747452">
        <ele>8.4</ele>
        <time>2019-07-08T11:13:37Z</time>
      </trkpt>
      <trkpt lat="51.228708817346" lon="4.476129730632">
        <ele>8.8</ele>
        <time>2019-07-08T11:13:44Z</time>
      </trkpt>
      <trkpt lat="51.228608318365" lon="4.475867628619">
        <ele>7.4</ele>
        <time>2019-07-08T11:13:51Z</time>
      </trkpt>
      <trkpt lat="51.228495749448" lon="4.475614159963">
        <ele>5.2</ele>
        <time>2019-07-08T11:13:58Z</time>
      </trkpt>
      <trkpt lat="51.228387706757" lon="4.475367648284">
        <ele>5.6</ele>
        <time>2019-07-08T11:14:05Z</time>
      </trkpt>
      <trkpt lat="51.22828854888" lon="4.475111078325">
        <ele>7.4</ele>
        <time>2019-07-08T11:14:12Z</time>
      </trkpt>
      <trkpt lat="51.228202466767" lon="4.474823746793">
        <ele>7.8</ele>
        <time>2019-07-08T11:14:20Z</time>
      </trkpt>
      <trkpt lat="51.228118228672" lon="4.474533062501">
        <ele>7.6</ele>
        <time>2019-07-08T11:14:28Z</time>
      </trkpt>
      <trkpt lat="51.228018735519" lon="4.474267607728">
        <ele>5.6</ele>
        <time>2019-07-08T11:14:35Z</time>
      </trkpt>
      <trkpt lat="51.227920918746" lon="4.473993184322">
        <ele>4</ele>
        <time>2019-07-08T11:14:42Z</time>
      </trkpt>
      <trkpt lat="51.22780742782" lon="4.473754551629">
        <ele>3</ele>
        <time>2019-07-08T11:14:49Z</time>
      </trkpt>
      <trkpt lat="51.227701061509" lon="4.473511308891">
        <ele>3.6</ele>
        <time>2019-07-08T11:14:56Z</time>
      </trkpt>
      <trkpt lat="51.227602993279" lon="4.473250883258">
        <ele>4.2</ele>
        <time>2019-07-08T11:15:04Z</time>
      </trkpt>
      <trkpt lat="51.227484808489" lon="4.473013424031">
        <ele>2.6</ele>
        <time>2019-07-08T11:15:12Z</time>
      </trkpt>
      <trkpt lat="51.227394451607" lon="4.472724416119">
        <ele>2.6</ele>
        <time>2019-07-08T11:15:20Z</time>
      </trkpt>
      <trkpt lat="51.227300574327" lon="4.472428954144">
        <ele>5</ele>
        <time>2019-07-08T11:15:28Z</time>
      </trkpt>
      <trkpt lat="51.227189430333" lon="4.472094432515">
        <ele>5.8</ele>
        <time>2019-07-08T11:15:37Z</time>
      </trkpt>
      <trkpt lat="51.227117010717" lon="4.47182243986">
        <ele>5.8</ele>
        <time>2019-07-08T11:15:44Z</time>
      </trkpt>
      <trkpt lat="51.226989773475" lon="4.47160786322">
        <ele>3</ele>
        <time>2019-07-08T11:15:52Z</time>
      </trkpt>
      <trkpt lat="51.226902350258" lon="4.471594703637">
        <ele>1.8</ele>
        <time>2019-07-08T11:15:56Z</time>
      </trkpt>
      <trkpt lat="51.226749715859" lon="4.471813135951">
        <ele>1.6</ele>
        <time>2019-07-08T11:16:04Z</time>
      </trkpt>
      <trkpt lat="51.226595237442" lon="4.471963171961">
        <ele>3</ele>
        <time>2019-07-08T11:16:11Z</time>
      </trkpt>
      <trkpt lat="51.226447464545" lon="4.472141874069">
        <ele>3.6</ele>
        <time>2019-07-08T11:16:18Z</time>
      </trkpt>
      <trkpt lat="51.226303128227" lon="4.472328622801">
        <ele>4.4</ele>
        <time>2019-07-08T11:16:25Z</time>
      </trkpt>
      <trkpt lat="51.226138423892" lon="4.472459631898">
        <ele>2</ele>
        <time>2019-07-08T11:16:32Z</time>
      </trkpt>
      <trkpt lat="51.225966511123" lon="4.472629197735">
        <ele>2.6</ele>
        <time>2019-07-08T11:16:40Z</time>
      </trkpt>
      <trkpt lat="51.225817900036" lon="4.472839918701">
        <ele>2.6</ele>
        <time>2019-07-08T11:16:48Z</time>
      </trkpt>
      <trkpt lat="51.225661745239" lon="4.472994648575">
        <ele>1.6</ele>
        <time>2019-07-08T11:16:55Z</time>
      </trkpt>
      <trkpt lat="51.22549486161" lon="4.473170417018">
        <ele>2.8</ele>
        <time>2019-07-08T11:17:03Z</time>
      </trkpt>
      <trkpt lat="51.22534734017" lon="4.473337133009">
        <ele>2.4</ele>
        <time>2019-07-08T11:17:10Z</time>
      </trkpt>
      <trkpt lat="51.225205099327" lon="4.473516086574">
        <ele>4.4</ele>
        <time>2019-07-08T11:17:18Z</time>
      </trkpt>
      <trkpt lat="51.22506487014" lon="4.473716330165">
        <ele>7.4</ele>
        <time>2019-07-08T11:17:26Z</time>
      </trkpt>
      <trkpt lat="51.224905111126" lon="4.473897295386">
        <ele>9.2</ele>
        <time>2019-07-08T11:17:34Z</time>
      </trkpt>
      <trkpt lat="51.224746190302" lon="4.474084127937">
        <ele>9.2</ele>
        <time>2019-07-08T11:17:42Z</time>
      </trkpt>
      <trkpt lat="51.224593472084" lon="4.474257549448">
        <ele>8.4</ele>
        <time>2019-07-08T11:17:49Z</time>
      </trkpt>
      <trkpt lat="51.224440250952" lon="4.474422840516">
        <ele>9.8</ele>
        <time>2019-07-08T11:17:57Z</time>
      </trkpt>
      <trkpt lat="51.22436498149" lon="4.474427199104">
        <ele>10</ele>
        <time>2019-07-08T11:18:00Z</time>
      </trkpt>
      <trkpt lat="51.224224752303" lon="4.474246401521">
        <ele>9.6</ele>
        <time>2019-07-08T11:18:05Z</time>
      </trkpt>
      <trkpt lat="51.224095000491" lon="4.474046744663">
        <ele>10</ele>
        <time>2019-07-08T11:18:11Z</time>
      </trkpt>
      <trkpt lat="51.223965248679" lon="4.473815488042">
        <ele>7.2</ele>
        <time>2019-07-08T11:18:19Z</time>
      </trkpt>
      <trkpt lat="51.223852595943" lon="4.473580208109">
        <ele>4.6</ele>
        <time>2019-07-08T11:18:26Z</time>
      </trkpt>
      <trkpt lat="51.223718988457" lon="4.473341826873">
        <ele>4.8</ele>
        <time>2019-07-08T11:18:33Z</time>
      </trkpt>
      <trkpt lat="51.223613376517" lon="4.473075701548">
        <ele>5.4</ele>
        <time>2019-07-08T11:18:40Z</time>
      </trkpt>
      <trkpt lat="51.223601977133" lon="4.47295567274">
        <ele>5.2</ele>
        <time>2019-07-08T11:18:43Z</time>
      </trkpt>
      <trkpt lat="51.223714378412" lon="4.472694073641">
        <ele>0.8</ele>
        <time>2019-07-08T11:18:50Z</time>
      </trkpt>
      <trkpt lat="51.223837173247" lon="4.47245192055">
        <ele>0</ele>
        <time>2019-07-08T11:18:57Z</time>
      </trkpt>
      <trkpt lat="51.223894505443" lon="4.472167857959">
        <ele>0</ele>
        <time>2019-07-08T11:19:04Z</time>
      </trkpt>
      <trkpt lat="51.223907078293" lon="4.471860326048">
        <ele>0</ele>
        <time>2019-07-08T11:19:11Z</time>
      </trkpt>
      <trkpt lat="51.223919399686" lon="4.471551872128">
        <ele>0</ele>
        <time>2019-07-08T11:19:17Z</time>
      </trkpt>
      <trkpt lat="51.223921411342" lon="4.471250123728">
        <ele>0</ele>
        <time>2019-07-08T11:19:23Z</time>
      </trkpt>
      <trkpt lat="51.223921159885" lon="4.4709557514">
        <ele>0</ele>
        <time>2019-07-08T11:19:29Z</time>
      </trkpt>
      <trkpt lat="51.223942785187" lon="4.470627683834">
        <ele>2.6</ele>
        <time>2019-07-08T11:19:36Z</time>
      </trkpt>
      <trkpt lat="51.223956447684" lon="4.470318643181">
        <ele>3.8</ele>
        <time>2019-07-08T11:19:43Z</time>
      </trkpt>
      <trkpt lat="51.223956363865" lon="4.470007674691">
        <ele>4.4</ele>
        <time>2019-07-08T11:19:50Z</time>
      </trkpt>
      <trkpt lat="51.223959968082" lon="4.469703914635">
        <ele>5.4</ele>
        <time>2019-07-08T11:19:57Z</time>
      </trkpt>
      <trkpt lat="51.223971116009" lon="4.469382971684">
        <ele>8.2</ele>
        <time>2019-07-08T11:20:05Z</time>
      </trkpt>
      <trkpt lat="51.224121654933" lon="4.469211561829">
        <ele>14.2</ele>
        <time>2019-07-08T11:20:13Z</time>
      </trkpt>
      <trkpt lat="51.224309996226" lon="4.469152050339">
        <ele>18.4</ele>
        <time>2019-07-08T11:20:21Z</time>
      </trkpt>
      <trkpt lat="51.224482495728" lon="4.469073428117">
        <ele>20.6</ele>
        <time>2019-07-08T11:20:30Z</time>
      </trkpt>
      <trkpt lat="51.224670417926" lon="4.46908072037">
        <ele>18.8</ele>
        <time>2019-07-08T11:20:37Z</time>
      </trkpt>
      <trkpt lat="51.224781897196" lon="4.46903461992">
        <ele>15.6</ele>
        <time>2019-07-08T11:20:41Z</time>
      </trkpt>
      <trkpt lat="51.224873092268" lon="4.468750305872">
        <ele>10.4</ele>
        <time>2019-07-08T11:20:48Z</time>
      </trkpt>
      <trkpt lat="51.22486035178" lon="4.468453083698">
        <ele>6.4</ele>
        <time>2019-07-08T11:20:55Z</time>
      </trkpt>
      <trkpt lat="51.224879211055" lon="4.46814949128">
        <ele>3.6</ele>
        <time>2019-07-08T11:21:02Z</time>
      </trkpt>
      <trkpt lat="51.224907374239" lon="4.467842881378">
        <ele>3.6</ele>
        <time>2019-07-08T11:21:09Z</time>
      </trkpt>
      <trkpt lat="51.224920282365" lon="4.467472485217">
        <ele>3.2</ele>
        <time>2019-07-08T11:21:17Z</time>
      </trkpt>
      <trkpt lat="51.224949870472" lon="4.467177442337">
        <ele>2</ele>
        <time>2019-07-08T11:21:24Z</time>
      </trkpt>
      <trkpt lat="51.224956659811" lon="4.46685951687">
        <ele>0.8</ele>
        <time>2019-07-08T11:21:31Z</time>
      </trkpt>
      <trkpt lat="51.224966718091" lon="4.466560702135">
        <ele>0</ele>
        <time>2019-07-08T11:21:38Z</time>
      </trkpt>
      <trkpt lat="51.224964119702" lon="4.466269263472">
        <ele>0</ele>
        <time>2019-07-08T11:21:45Z</time>
      </trkpt>
      <trkpt lat="51.224911984284" lon="4.465990230021">
        <ele>0.4</ele>
        <time>2019-07-08T11:21:52Z</time>
      </trkpt>
      <trkpt lat="51.224856747563" lon="4.465744975627">
        <ele>0</ele>
        <time>2019-07-08T11:22:03Z</time>
      </trkpt>
      <trkpt lat="51.224932268482" lon="4.465674902943">
        <ele>0.8</ele>
        <time>2019-07-08T11:22:09Z</time>
      </trkpt>
      <trkpt lat="51.225116418825" lon="4.465662246274">
        <ele>6.2</ele>
        <time>2019-07-08T11:22:17Z</time>
      </trkpt>
      <trkpt lat="51.225297551684" lon="4.465770875698">
        <ele>6.6</ele>
        <time>2019-07-08T11:22:24Z</time>
      </trkpt>
      <trkpt lat="51.225484635692" lon="4.465848827368">
        <ele>3.2</ele>
        <time>2019-07-08T11:22:31Z</time>
      </trkpt>
      <trkpt lat="51.225666103827" lon="4.465980842293">
        <ele>4.2</ele>
        <time>2019-07-08T11:22:39Z</time>
      </trkpt>
      <trkpt lat="51.22584438684" lon="4.466043706543">
        <ele>7.8</ele>
        <time>2019-07-08T11:22:47Z</time>
      </trkpt>
      <trkpt lat="51.226023424224" lon="4.466034151177">
        <ele>11</ele>
        <time>2019-07-08T11:22:54Z</time>
      </trkpt>
      <trkpt lat="51.226201791056" lon="4.466088130613">
        <ele>13.8</ele>
        <time>2019-07-08T11:23:00Z</time>
      </trkpt>
      <trkpt lat="51.226390719082" lon="4.466121658213">
        <ele>15.8</ele>
        <time>2019-07-08T11:23:07Z</time>
      </trkpt>
      <trkpt lat="51.226581239669" lon="4.46615795184">
        <ele>17.6</ele>
        <time>2019-07-08T11:23:14Z</time>
      </trkpt>
      <trkpt lat="51.226781315622" lon="4.466191060345">
        <ele>18.4</ele>
        <time>2019-07-08T11:23:21Z</time>
      </trkpt>
      <trkpt lat="51.226974183141" lon="4.46623757989">
        <ele>16.2</ele>
        <time>2019-07-08T11:23:28Z</time>
      </trkpt>
      <trkpt lat="51.227103934953" lon="4.466211260724">
        <ele>11</ele>
        <time>2019-07-08T11:23:33Z</time>
      </trkpt>
      <trkpt lat="51.227205020667" lon="4.466115874702">
        <ele>4.6</ele>
        <time>2019-07-08T11:23:39Z</time>
      </trkpt>
      <trkpt lat="51.227384309508" lon="4.466200448073">
        <ele>1.8</ele>
        <time>2019-07-08T11:23:49Z</time>
      </trkpt>
      <trkpt lat="51.227414065253" lon="4.466298264846">
        <ele>0</ele>
        <time>2019-07-08T11:23:56Z</time>
      </trkpt>
      <trkpt lat="51.227464691929" lon="4.466201705358">
        <ele>3.6</ele>
        <time>2019-07-08T11:24:01Z</time>
      </trkpt>
      <trkpt lat="51.227396547082" lon="4.465905321374">
        <ele>5.6</ele>
        <time>2019-07-08T11:24:08Z</time>
      </trkpt>
      <trkpt lat="51.227329072787" lon="4.465609188847">
        <ele>6.4</ele>
        <time>2019-07-08T11:24:15Z</time>
      </trkpt>
      <trkpt lat="51.227252797497" lon="4.465323701333">
        <ele>11.6</ele>
        <time>2019-07-08T11:24:22Z</time>
      </trkpt>
      <trkpt lat="51.227190603799" lon="4.465044248787">
        <ele>16.4</ele>
        <time>2019-07-08T11:24:29Z</time>
      </trkpt>
      <trkpt lat="51.227124973522" lon="4.46473889617">
        <ele>23.8</ele>
        <time>2019-07-08T11:24:36Z</time>
      </trkpt>
      <trkpt lat="51.227085159497" lon="4.464415438649">
        <ele>27.6</ele>
        <time>2019-07-08T11:24:43Z</time>
      </trkpt>
      <trkpt lat="51.227047943861" lon="4.464118551751">
        <ele>32.6</ele>
        <time>2019-07-08T11:24:50Z</time>
      </trkpt>
      <trkpt lat="51.226995305529" lon="4.463839769757">
        <ele>38.4</ele>
        <time>2019-07-08T11:24:57Z</time>
      </trkpt>
      <trkpt lat="51.226986420715" lon="4.463781347914">
        <ele>40</ele>
        <time>2019-07-08T11:24:59Z</time>
      </trkpt>
    </trkseg>
  </trk>
</gpx>